Time;durP1;ratioP1;P1;durP2;ratioP2;P2;SDS_P1;SDS_P2;PMS_P1;PMS_P2;Temp;Humidity;BMP_temperature;BMP_pressure;BME280_temperature;BME280_humidity;BME280_pressure;Samples;Min_cycle;Max_cycle;Signal;HPM_P1;HPM_P2
2024/02/20 00:04:23;;;;;;;;;;;;;;;16.83;40.08;96429.66;10511629;28;1906;-60
2024/02/20 00:09:24;;;;;;;;;;;;;;;16.83;40.07;96427.03;10524930;28;1608;-60
2024/02/20 00:14:24;;;;;;;;;;;;;;;16.83;40.16;96425.22;10519088;28;1397;-60
2024/02/20 00:19:24;;;;;;;;;;;;;;;16.83;40.08;96417.38;10514295;28;1246;-60
2024/02/20 00:24:25;;;;;;;;;;;;;;;16.83;40.13;96419.19;10524993;28;1901;-60
2024/02/20 00:29:26;;;;;;;;;;;;;;;16.83;40.09;96416.56;10525258;28;1369;-60
2024/02/20 00:34:26;;;;;;;;;;;;;;;16.83;40.07;96416.56;10513150;28;2460;-60
2024/02/20 00:39:27;;;;;;;;;;;;;;;16.82;40.08;96414.97;10515670;28;1494;-60
2024/02/20 00:44:27;;;;;;;;;;;;;;;16.82;40.07;96421.00;10524191;28;1898;-60
2024/02/20 00:49:28;;;;;;;;;;;;;;;16.82;39.98;96422.81;10511651;28;1735;-60
2024/02/20 00:54:28;;;;;;;;;;;;;;;16.81;40.01;96422.03;10518481;28;1393;-59
2024/02/20 00:59:29;;;;;;;;;;;;;;;16.82;40.02;96425.44;10519203;28;1354;-60
2024/02/20 01:04:29;;;;;;;;;;;;;;;16.82;39.99;96438.53;10523322;28;1971;-60
2024/02/20 01:09:29;;;;;;;;;;;;;;;16.82;40.05;96435.91;10520860;28;1623;-60
2024/02/20 01:14:30;;;;;;;;;;;;;;;16.81;40.13;96436.94;10525705;28;1326;-59
2024/02/20 01:19:30;;;;;;;;;;;;;;;16.80;40.04;96424.88;10536370;28;1126;-59
2024/02/20 01:24:31;;;;;;;;;;;;;;;16.80;40.13;96427.50;10527378;28;1975;-59
2024/02/20 01:29:31;;;;;;;;;;;;;;;16.81;40.03;96429.09;10513883;28;1390;-59
2024/02/20 01:34:32;;;;;;;;;;;;;;;16.81;39.99;96423.84;10518118;28;2425;-59
2024/02/20 01:39:32;;;;;;;;;;;;;;;16.80;40.08;96414.41;10520199;28;1381;-59
2024/02/20 01:44:33;;;;;;;;;;;;;;;16.80;40.08;96414.41;10513715;28;1894;-59
2024/02/20 01:49:33;;;;;;;;;;;;;;;16.79;40.06;96411.00;10519078;28;1690;-59
2024/02/20 01:54:33;;;;;;;;;;;;;;;16.79;40.10;96394.50;10507639;28;1714;-59
2024/02/20 01:59:34;;;;;;;;;;;;;;;16.79;40.03;96389.25;10510465;28;1491;-59
2024/02/20 02:04:35;;;;;;;;;;;;;;;16.78;39.97;96383.22;10503224;28;1906;-59
2024/02/20 02:09:35;;;;;;;;;;;;;;;16.79;39.88;96389.25;10519616;28;1390;-59
2024/02/20 02:14:41;;;;;;;;;;;;;;;16.80;40.04;96393.44;10510447;28;1405;-59
2024/02/20 02:19:41;;;;;;;;;;;;;;;16.78;40.08;96393.69;10518840;28;1569;-59
2024/02/20 02:24:44;;;;;;;;;;;;;;;16.78;39.97;96392.91;10514099;28;1956;-59
2024/02/20 02:29:44;;;;;;;;;;;;;;;16.79;40.01;96397.91;10509547;28;2312;-59
2024/02/20 02:34:44;;;;;;;;;;;;;;;16.78;40.01;96391.06;10509707;28;1661;-58
2024/02/20 02:39:47;;;;;;;;;;;;;;;16.78;39.94;96387.66;10518551;28;1729;-59
2024/02/20 02:44:47;;;;;;;;;;;;;;;16.79;40.01;96399.72;10511146;28;1890;-59
2024/02/20 02:49:47;;;;;;;;;;;;;;;16.78;40.04;96404.16;10509416;28;991;-59
2024/02/20 02:54:48;;;;;;;;;;;;;;;16.79;40.06;96399.72;10507747;28;1584;-59
2024/02/20 02:59:48;;;;;;;;;;;;;;;16.77;39.93;96407.03;10500128;28;1800;-59
2024/02/20 03:04:49;;;;;;;;;;;;;;;16.76;40.01;96406.22;10508757;28;1913;-59
2024/02/20 03:09:49;;;;;;;;;;;;;;;16.76;39.89;96400.19;10517532;28;2413;-59
2024/02/20 03:14:51;;;;;;;;;;;;;;;16.78;39.96;96408.59;10511044;28;1460;-59
2024/02/20 03:19:51;;;;;;;;;;;;;;;16.76;39.98;96405.41;10513909;28;1653;-60
2024/02/20 03:24:54;;;;;;;;;;;;;;;16.76;39.92;96400.19;10515262;28;1949;-59
2024/02/20 03:29:54;;;;;;;;;;;;;;;16.76;40.02;96406.22;10532818;28;1008;-59
2024/02/20 03:34:55;;;;;;;;;;;;;;;16.76;40.01;96413.28;10518807;28;1702;-59
2024/02/20 03:39:55;;;;;;;;;;;;;;;16.76;39.81;96423.75;10529596;28;1741;-59
2024/02/20 03:44:55;;;;;;;;;;;;;;;16.76;39.90;96423.75;10513868;28;1987;-59
2024/02/20 03:49:55;;;;;;;;;;;;;;;16.75;39.90;96430.03;10519026;28;975;-59
2024/02/20 03:54:56;;;;;;;;;;;;;;;16.76;39.93;96436.84;10531058;28;2383;-59
2024/02/20 03:59:56;;;;;;;;;;;;;;;16.74;39.94;96439.69;10532362;28;1373;-59
2024/02/20 04:04:57;;;;;;;;;;;;;;;16.75;39.91;96443.91;10520886;28;1980;-59
2024/02/20 04:09:57;;;;;;;;;;;;;;;16.75;39.88;96441.31;10522865;28;1616;-59
2024/02/20 04:14:57;;;;;;;;;;;;;;;16.74;39.82;96444.13;10518654;28;1409;-59
2024/02/20 04:20:03;;;;;;;;;;;;;;;16.75;39.93;96448.34;10526503;28;1162;-59
2024/02/20 04:25:03;;;;;;;;;;;;;;;16.73;39.88;96455.66;10514704;28;1975;-60
2024/02/20 04:30:05;;;;;;;;;;;;;;;16.72;39.88;96467.94;10513367;28;1381;-59
2024/02/20 04:35:06;;;;;;;;;;;;;;;16.74;39.87;96467.69;10514691;28;1870;-59
2024/02/20 04:40:09;;;;;;;;;;;;;;;16.73;39.92;96474.75;10516136;28;1473;-59
2024/02/20 04:45:10;;;;;;;;;;;;;;;16.73;39.89;96477.34;10525881;28;1913;-59
2024/02/20 04:50:10;;;;;;;;;;;;;;;16.73;39.82;96479.22;10519721;28;2328;-60
2024/02/20 04:55:10;;;;;;;;;;;;;;;16.72;39.90;96478.41;10522611;28;1544;-59
2024/02/20 05:00:11;;;;;;;;;;;;;;;16.72;39.89;96481.03;10513554;28;1440;-59
2024/02/20 05:05:11;;;;;;;;;;;;;;;16.71;39.90;96482.03;10525195;28;1930;-59
2024/02/20 05:10:11;;;;;;;;;;;;;;;16.71;39.96;96484.66;10527777;28;1567;-59
2024/02/20 05:15:11;;;;;;;;;;;;;;;16.71;39.92;96486.50;10528720;28;1429;-58
2024/02/20 05:20:12;;;;;;;;;;;;;;;16.71;40.01;96491.72;10527144;28;2060;-59
2024/02/20 05:25:12;;;;;;;;;;;;;;;16.71;39.92;96481.25;10521389;28;1910;-59
2024/02/20 05:30:12;;;;;;;;;;;;;;;16.70;39.86;96487.50;10527362;28;2517;-60
2024/02/20 05:35:13;;;;;;;;;;;;;;;16.70;39.75;96501.41;10518265;28;1884;-60
2024/02/20 05:40:13;;;;;;;;;;;;;;;16.70;39.79;96524.16;10517660;28;1571;-59
2024/02/20 05:45:13;;;;;;;;;;;;;;;16.71;39.83;96517.91;10517680;28;1971;-59
2024/02/20 05:50:16;;;;;;;;;;;;;;;16.71;39.83;96520.53;10512997;28;1126;-59
2024/02/20 05:55:16;;;;;;;;;;;;;;;16.71;39.80;96523.16;10518165;28;1885;-59
2024/02/20 06:00:17;;;;;;;;;;;;;;;16.69;39.90;96536.44;10528230;28;1373;-59
2024/02/20 06:05:17;;;;;;;;;;;;;;;16.70;39.86;96532.00;10506044;28;1981;-59
2024/02/20 06:10:17;;;;;;;;;;;;;;;16.70;39.91;96532.00;10518861;28;1599;-60
2024/02/20 06:15:18;;;;;;;;;;;;;;;16.69;39.82;96533.81;10526970;28;1402;-59
2024/02/20 06:20:18;;;;;;;;;;;;;;;16.68;39.86;96544.53;10525004;28;1085;-59
2024/02/20 06:25:18;;;;;;;;;;;;;;;16.70;39.93;96547.72;10512550;28;1906;-58
2024/02/20 06:30:20;;;;;;;;;;;;;;;16.69;39.89;96552.16;10512987;28;2727;-58
2024/02/20 06:35:20;;;;;;;;;;;;;;;16.69;39.79;96562.63;10507075;28;1670;-59
2024/02/20 06:40:20;;;;;;;;;;;;;;;16.69;39.83;96582.78;10516387;28;1599;-58
2024/02/20 06:45:20;;;;;;;;;;;;;;;16.69;39.85;96588.81;10513954;28;1902;-59
2024/02/20 06:50:21;;;;;;;;;;;;;;;16.68;39.83;96596.88;10506597;28;1477;-58
2024/02/20 06:55:21;;;;;;;;;;;;;;;16.67;39.77;96601.31;10507822;28;1635;-60
2024/02/20 07:00:22;;;;;;;;;;;;;;;16.67;39.75;96606.56;10509476;28;1270;-60
2024/02/20 07:05:22;;;;;;;;;;;;;;;16.69;39.81;96616.81;10518134;28;1906;-59
2024/02/20 07:10:22;;;;;;;;;;;;;;;16.67;39.76;96622.25;10518790;28;2452;-59
2024/02/20 07:15:23;;;;;;;;;;;;;;;16.66;39.84;96618.06;10513883;28;1553;-60
2024/02/20 07:20:23;;;;;;;;;;;;;;;16.68;39.77;96623.06;10527787;28;1389;-60
2024/02/20 07:25:25;;;;;;;;;;;;;;;16.67;39.75;96631.97;10528165;28;1897;-59
2024/02/20 07:30:30;;;;;;;;;;;;;;;16.67;39.78;96637.19;10525438;28;1351;-59
2024/02/20 07:35:30;;;;;;;;;;;;;;;16.66;39.78;96639.00;10511625;28;1441;-59
2024/02/20 07:40:31;;;;;;;;;;;;;;;16.66;39.79;96649.47;10521127;28;1678;-60
2024/02/20 07:45:31;;;;;;;;;;;;;;;16.67;39.84;96666.00;10527228;28;1905;-60
2024/02/20 07:50:32;;;;;;;;;;;;;;;16.67;39.82;96661.53;10520967;28;2279;-60
2024/02/20 07:55:33;;;;;;;;;;;;;;;16.67;39.76;96668.59;10526250;28;1770;-59
2024/02/20 08:00:33;;;;;;;;;;;;;;;16.66;39.81;96664.38;10514959;28;1409;-59
2024/02/20 08:05:34;;;;;;;;;;;;;;;16.66;39.69;96675.66;10525891;28;1913;-60
2024/02/20 08:10:34;;;;;;;;;;;;;;;16.66;39.76;96682.72;10518917;28;1690;-59
2024/02/20 08:15:34;;;;;;;;;;;;;;;16.66;39.83;96680.09;10517286;28;1370;-62
2024/02/20 08:20:34;;;;;;;;;;;;;;;16.66;39.76;96687.94;10526953;28;1623;-60
2024/02/20 08:25:35;;;;;;;;;;;;;;;16.66;39.79;96699.22;10525591;28;1906;-60
2024/02/20 08:30:35;;;;;;;;;;;;;;;16.65;39.79;96705.47;10519577;28;1404;-59
2024/02/20 08:35:36;;;;;;;;;;;;;;;16.66;39.75;96695.78;10524525;28;2326;-59
2024/02/20 08:40:36;;;;;;;;;;;;;;;16.65;39.71;96702.84;10531419;28;1517;-59
2024/02/20 08:45:36;;;;;;;;;;;;;;;16.66;39.79;96703.66;10523918;28;1969;-59
2024/02/20 08:50:36;;;;;;;;;;;;;;;16.65;39.75;96707.31;10524230;28;1601;-60
2024/02/20 08:55:38;;;;;;;;;;;;;;;16.65;39.67;96712.53;10515853;28;1113;-59
2024/02/20 09:00:38;;;;;;;;;;;;;;;16.65;39.78;96720.41;10521278;28;1417;-60
2024/02/20 09:05:38;;;;;;;;;;;;;;;16.65;39.70;96725.63;10513187;28;1905;-58
2024/02/20 09:10:39;;;;;;;;;;;;;;;16.65;39.78;96728.25;10520612;28;882;-59
2024/02/20 09:15:39;;;;;;;;;;;;;;;16.65;40.03;96733.47;10513953;28;1361;-59
2024/02/20 09:20:39;;;;;;;;;;;;;;;16.65;39.84;96733.47;10522991;28;2171;-60
2024/02/20 09:25:43;;;;;;;;;;;;;;;16.65;39.79;96728.25;10522951;28;1981;-60
2024/02/20 09:30:44;;;;;;;;;;;;;;;16.65;39.74;96736.09;10515332;28;1382;-59
2024/02/20 09:35:44;;;;;;;;;;;;;;;16.65;39.74;96731.63;10517831;28;1639;-59
2024/02/20 09:40:47;;;;;;;;;;;;;;;16.66;39.79;96737.69;10518784;28;1213;-59
2024/02/20 09:45:47;;;;;;;;;;;;;;;16.67;39.83;96736.66;10517646;28;1909;-60
2024/02/20 09:50:47;;;;;;;;;;;;;;;16.66;40.00;96742.91;10512473;28;1698;-60
2024/02/20 09:55:51;;;;;;;;;;;;;;;16.66;39.89;96743.72;10515253;28;1114;-60
2024/02/20 10:00:55;;;;;;;;;;;;;;;16.66;39.95;96746.34;10511976;28;1348;-60
2024/02/20 10:05:56;;;;;;;;;;;;;;;16.65;40.03;96749.19;10520532;28;2474;-60
2024/02/20 10:10:56;;;;;;;;;;;;;;;16.66;39.96;96758.63;10515026;28;1487;-59
2024/02/20 10:16:03;;;;;;;;;;;;;;;16.65;40.07;96770.13;10522052;28;1346;-60
2024/02/20 10:21:05;;;;;;;;;;;;;;;16.65;39.92;96764.91;10514624;28;1660;-60
2024/02/20 10:26:07;;;;;;;;;;;;;;;16.65;39.96;96759.66;10514967;28;1902;-60
2024/02/20 10:31:07;;;;;;;;;;;;;;;16.65;39.96;96749.19;10516690;28;1433;-59
2024/02/20 10:36:09;;;;;;;;;;;;;;;16.66;39.88;96745.53;10519799;28;1362;-63
2024/02/20 10:41:09;;;;;;;;;;;;;;;16.65;39.99;96749.97;10518311;28;1237;-59
2024/02/20 10:46:09;;;;;;;;;;;;;;;16.67;40.03;96752.38;10509298;28;1960;-60
2024/02/20 10:51:10;;;;;;;;;;;;;;;16.67;40.05;96742.69;10511753;28;1453;-60
2024/02/20 10:56:10;;;;;;;;;;;;;;;16.68;40.09;96753.97;10532673;28;976;-60
2024/02/20 11:01:13;;;;;;;;;;;;;;;16.66;40.17;96746.34;10527567;28;2390;-60
2024/02/20 11:06:14;;;;;;;;;;;;;;;16.66;40.02;96753.38;10512455;28;1905;-59
2024/02/20 11:11:14;;;;;;;;;;;;;;;16.65;40.13;96751.81;10513688;28;1019;-60
2024/02/20 11:16:14;;;;;;;;;;;;;;;16.66;40.15;96753.38;10512037;28;1374;-59
2024/02/20 11:21:23;;;;;;;;;;;;;;;16.65;40.20;96746.56;10514403;28;1392;-60
2024/02/20 11:26:27;;;;;;;;;;;;;;;16.65;40.22;96743.94;10513429;28;1969;-59
2024/02/20 11:31:27;;;;;;;;;;;;;;;16.65;40.08;96749.19;10516661;28;1342;-60
2024/02/20 11:36:28;;;;;;;;;;;;;;;16.64;40.09;96748.38;10513858;28;1358;-60
2024/02/20 11:41:28;;;;;;;;;;;;;;;16.64;40.03;96743.16;10519062;28;1014;-59
2024/02/20 11:46:29;;;;;;;;;;;;;;;16.64;40.02;96731.88;10519405;28;1905;-58
2024/02/20 11:51:29;;;;;;;;;;;;;;;16.65;40.03;96728.25;10498543;28;2294;-58
2024/02/20 11:56:30;;;;;;;;;;;;;;;16.65;40.05;96733.47;10528975;28;1859;-58
2024/02/20 12:01:31;;;;;;;;;;;;;;;16.65;40.03;96731.63;10521594;28;1389;-58
2024/02/20 12:06:35;;;;;;;;;;;;;;;16.65;39.99;96728.25;10508410;28;1901;-57
2024/02/20 12:11:49;;;;;;;;;;;;;;;16.64;40.09;96731.88;10528044;28;1029;-58
2024/02/20 12:16:56;;;;;;;;;;;;;;;16.64;39.98;96744.97;10519018;28;1749;-58
2024/02/20 12:22:03;;;;;;;;;;;;;;;16.65;40.09;96754.44;10517016;28;1762;-58
2024/02/20 12:27:03;;;;;;;;;;;;;;;16.64;40.02;96751.00;10524609;28;1906;-58
2024/02/20 12:32:03;;;;;;;;;;;;;;;16.63;40.11;96754.63;10519891;28;2741;-58
2024/02/20 12:37:08;;;;;;;;;;;;;;;16.65;40.02;96749.19;10522759;28;1433;-58
2024/02/20 12:42:08;;;;;;;;;;;;;;;16.63;40.12;96746.78;10512813;28;1114;-58
2024/02/20 12:47:10;;;;;;;;;;;;;;;16.65;39.97;96738.72;10516005;28;1973;-58
2024/02/20 12:52:11;;;;;;;;;;;;;;;16.65;40.08;96741.34;10521937;28;1823;-58
2024/02/20 12:57:12;;;;;;;;;;;;;;;16.64;40.09;96731.88;10522230;28;1403;-58
2024/02/20 13:02:12;;;;;;;;;;;;;;;16.63;40.03;96731.06;10516193;28;1243;-60
2024/02/20 13:07:13;;;;;;;;;;;;;;;16.64;39.97;96737.09;10526258;28;1969;-59
2024/02/20 13:12:15;;;;;;;;;;;;;;;16.64;40.00;96731.88;10517529;28;1122;-59
2024/02/20 13:17:15;;;;;;;;;;;;;;;16.64;39.93;96730.06;10524763;28;1369;-60
2024/02/20 13:22:16;;;;;;;;;;;;;;;16.64;40.01;96729.25;10531572;28;2478;-59
2024/02/20 13:27:18;;;;;;;;;;;;;;;16.65;40.02;96723.00;10523152;28;1898;-59
2024/02/20 13:32:18;;;;;;;;;;;;;;;16.65;39.95;96725.63;10520418;28;1562;-59
2024/02/20 13:37:19;;;;;;;;;;;;;;;16.65;39.93;96712.53;10526547;28;1575;-60
2024/02/20 13:42:20;;;;;;;;;;;;;;;16.66;40.01;96707.06;10515877;28;1148;-59
2024/02/20 13:47:21;;;;;;;;;;;;;;;16.66;39.89;96703.66;10521096;28;1930;-60
2024/02/20 13:52:21;;;;;;;;;;;;;;;16.65;40.04;96687.13;10509522;28;1727;-59
2024/02/20 13:57:21;;;;;;;;;;;;;;;16.66;40.04;96698.41;10516595;28;1136;-59
2024/02/20 14:02:21;;;;;;;;;;;;;;;16.67;39.92;96705.25;10514310;28;1352;-60
2024/02/20 14:07:23;;;;;;;;;;;;;;;16.72;40.00;96697.50;10514963;28;2742;-59
2024/02/20 14:12:24;;;;;;;;;;;;;;;16.77;39.96;96685.34;10519278;28;1463;-60
2024/02/20 14:17:24;;;;;;;;;;;;;;;16.79;39.88;96685.94;10519071;28;1506;-59
2024/02/20 14:22:25;;;;;;;;;;;;;;;16.79;39.95;96687.75;10518018;28;1530;-60
2024/02/20 14:27:26;;;;;;;;;;;;;;;16.82;40.00;96682.03;10509438;28;1910;-60
2024/02/20 14:32:26;;;;;;;;;;;;;;;16.83;40.01;96684.44;10512503;28;1636;-60
2024/02/20 14:37:26;;;;;;;;;;;;;;;16.81;39.93;96688.31;10516820;28;1676;-59
2024/02/20 14:42:27;;;;;;;;;;;;;;;16.80;39.77;96682.25;10497530;28;1366;-60
2024/02/20 14:47:27;;;;;;;;;;;;;;;16.80;39.88;96684.88;10511154;28;1983;-57
2024/02/20 14:52:27;;;;;;;;;;;;;;;16.80;39.91;96674.41;10512490;28;2473;-62
2024/02/20 14:57:28;;;;;;;;;;;;;;;16.79;40.02;96677.25;10516656;28;1510;-60
2024/02/20 15:02:28;;;;;;;;;;;;;;;16.76;39.93;96675.88;10510702;28;1578;-59
2024/02/20 15:07:28;;;;;;;;;;;;;;;16.76;39.90;96677.72;10513173;28;1890;-60
2024/02/20 15:12:31;;;;;;;;;;;;;;;16.74;39.98;96680.56;10511330;28;1221;-60
2024/02/20 15:17:32;;;;;;;;;;;;;;;16.75;39.91;96686.59;10512334;28;1659;-58
2024/02/20 15:22:37;;;;;;;;;;;;;;;16.72;39.87;96685.22;10516100;28;1445;-58
2024/02/20 15:27:37;;;;;;;;;;;;;;;16.73;39.87;96686.03;10512249;28;1977;-58
2024/02/20 15:32:38;;;;;;;;;;;;;;;16.71;39.90;96691.47;10519207;28;1632;-60
2024/02/20 15:37:38;;;;;;;;;;;;;;;16.69;39.90;96696.13;10513249;28;1365;-59
2024/02/20 15:42:42;;;;;;;;;;;;;;;16.70;39.88;96699.56;10519116;28;1125;-60
2024/02/20 15:47:42;;;;;;;;;;;;;;;16.68;39.88;96697.16;10521725;28;2518;-60
2024/02/20 15:52:43;;;;;;;;;;;;;;;16.67;39.91;96700.03;10527319;28;1821;-59
2024/02/20 15:57:44;;;;;;;;;;;;;;;16.66;39.86;96690.56;10535630;28;1423;-59
2024/02/20 16:02:44;;;;;;;;;;;;;;;16.66;39.92;96693.19;10526811;28;1144;-59
2024/02/20 16:07:47;;;;;;;;;;;;;;;16.66;39.78;96687.94;10522171;28;1969;-60
2024/02/20 16:12:47;;;;;;;;;;;;;;;16.64;39.86;96690.00;10519352;28;1090;-60
2024/02/20 16:17:48;;;;;;;;;;;;;;;16.65;39.82;96702.06;10517403;28;1307;-59
2024/02/20 16:22:48;;;;;;;;;;;;;;;16.64;39.78;96714.34;10522988;28;1457;-59
2024/02/20 16:27:50;;;;;;;;;;;;;;;16.64;39.89;96710.94;10516673;28;1985;-61
2024/02/20 16:32:50;;;;;;;;;;;;;;;16.63;39.85;96719.81;10519794;28;1585;-61
2024/02/20 16:37:50;;;;;;;;;;;;;;;16.63;39.81;96717.97;10526308;28;1357;-60
2024/02/20 16:42:50;;;;;;;;;;;;;;;16.62;39.84;96726.06;10519141;27;2359;-59
2024/02/20 16:47:51;;;;;;;;;;;;;;;16.60;39.74;96736.75;10519953;28;1923;-59
2024/02/20 16:52:51;;;;;;;;;;;;;;;16.61;39.64;96729.72;10517814;28;1333;-59
2024/02/20 16:57:51;;;;;;;;;;;;;;;16.60;39.73;96738.59;10520915;28;1778;-59
2024/02/20 17:02:52;;;;;;;;;;;;;;;16.60;39.65;96741.19;10525696;28;1366;-60
2024/02/20 17:07:52;;;;;;;;;;;;;;;16.59;39.74;96735.16;10519279;28;1910;-60
2024/02/20 17:12:53;;;;;;;;;;;;;;;16.58;39.65;96728.34;10513305;28;1921;-60
2024/02/20 17:17:53;;;;;;;;;;;;;;;16.58;39.61;96722.31;10520488;28;1595;-59
2024/02/20 17:22:53;;;;;;;;;;;;;;;16.58;39.62;96722.31;10517216;28;2307;-59
2024/02/20 17:27:54;;;;;;;;;;;;;;;16.57;39.62;96716.25;10505185;28;1969;-59
2024/02/20 17:32:54;;;;;;;;;;;;;;;16.56;39.39;96716.50;10513919;28;1665;-59
2024/02/20 17:37:54;;;;;;;;;;;;;;;16.58;39.58;96719.69;10513654;28;1991;-59
2024/02/20 17:42:54;;;;;;;;;;;;;;;16.56;39.56;96712.06;10515130;28;1052;-59
2024/02/20 17:47:55;;;;;;;;;;;;;;;16.56;39.47;96714.69;10516680;28;1910;-59
2024/02/20 17:52:55;;;;;;;;;;;;;;;16.55;39.64;96699.97;10517584;28;1869;-59
2024/02/20 17:57:55;;;;;;;;;;;;;;;16.55;39.61;96702.59;10514825;28;1055;-59
2024/02/20 18:02:55;;;;;;;;;;;;;;;16.54;39.53;96695.78;10523238;28;1378;-60
2024/02/20 18:07:56;;;;;;;;;;;;;;;16.55;39.52;96702.59;10506393;28;2330;-59
2024/02/20 18:12:56;;;;;;;;;;;;;;;16.55;39.54;96701.81;10528861;28;1694;-59
2024/02/20 18:17:56;;;;;;;;;;;;;;;16.55;39.50;96696.59;10526550;28;1330;-59
2024/02/20 18:22:57;;;;;;;;;;;;;;;16.54;39.52;96697.59;10514839;28;1374;-59
2024/02/20 18:27:58;;;;;;;;;;;;;;;16.54;39.55;96708.06;10527725;28;1907;-58
2024/02/20 18:32:58;;;;;;;;;;;;;;;16.53;39.48;96709.06;10514009;28;1452;-59
2024/02/20 18:37:59;;;;;;;;;;;;;;;16.53;39.54;96703.84;10528061;28;1787;-59
2024/02/20 18:42:59;;;;;;;;;;;;;;;16.52;39.51;96694.41;10525583;28;1030;-59
2024/02/20 18:47:59;;;;;;;;;;;;;;;16.52;39.46;96707.50;10517912;28;2582;-59
2024/02/20 18:53:00;;;;;;;;;;;;;;;16.52;39.54;96704.88;10511672;28;1569;-60
2024/02/20 18:58:00;;;;;;;;;;;;;;;16.52;39.46;96707.50;10520155;28;1482;-59
2024/02/20 19:03:01;;;;;;;;;;;;;;;16.51;39.37;96705.88;10512499;28;1393;-59
2024/02/20 19:08:02;;;;;;;;;;;;;;;16.51;39.46;96701.47;10517113;28;1910;-59
2024/02/20 19:13:03;;;;;;;;;;;;;;;16.50;39.37;96702.50;10513496;28;1129;-59
2024/02/20 19:18:03;;;;;;;;;;;;;;;16.49;39.37;96703.50;10515040;28;1648;-59
2024/02/20 19:23:03;;;;;;;;;;;;;;;16.49;39.35;96687.81;10523980;28;1330;-59
2024/02/20 19:28:04;;;;;;;;;;;;;;;16.50;39.40;96688.59;10517134;28;1977;-59
2024/02/20 19:33:06;;;;;;;;;;;;;;;16.48;39.46;96690.63;10522919;28;2644;-58
2024/02/20 19:38:08;;;;;;;;;;;;;;;16.48;39.40;96696.66;10513971;28;1319;-59
2024/02/20 19:43:09;;;;;;;;;;;;;;;16.48;39.44;96707.13;10505262;28;1183;-59
2024/02/20 19:48:09;;;;;;;;;;;;;;;16.48;39.33;96708.94;10523620;28;2006;-59
2024/02/20 19:53:09;;;;;;;;;;;;;;;16.47;39.36;96694.25;10521260;28;1865;-58
2024/02/20 19:58:12;;;;;;;;;;;;;;;16.47;39.34;96681.97;10518202;28;1405;-58
2024/02/20 20:03:12;;;;;;;;;;;;;;;16.47;39.31;96686.38;10502774;28;2187;-58
2024/02/20 20:08:12;;;;;;;;;;;;;;;16.46;39.42;96696.09;10532109;28;1918;-58
2024/02/20 20:13:13;;;;;;;;;;;;;;;16.46;39.37;96700.50;10528626;28;940;-58
2024/02/20 20:18:13;;;;;;;;;;;;;;;16.44;39.28;96695.50;10520493;28;1308;-58
2024/02/20 20:23:13;;;;;;;;;;;;;;;16.46;39.30;96708.38;10524722;28;2723;-58
2024/02/20 20:28:14;;;;;;;;;;;;;;;16.45;39.22;96712.78;10522865;28;1906;-58
2024/02/20 20:33:15;;;;;;;;;;;;;;;16.45;39.25;96709.38;10521741;28;1342;-58
2024/02/20 20:38:15;;;;;;;;;;;;;;;16.45;39.20;96709.38;10511249;28;1487;-59
2024/02/20 20:43:15;;;;;;;;;;;;;;;16.44;39.40;96705.19;10530930;28;1125;-59
2024/02/20 20:48:15;;;;;;;;;;;;;;;16.44;39.21;96699.94;10523450;28;1909;-59
2024/02/20 20:53:18;;;;;;;;;;;;;;;16.44;39.21;96699.94;10532466;28;1415;-59
2024/02/20 20:58:20;;;;;;;;;;;;;;;16.42;39.18;96688.91;10529863;28;995;-59
2024/02/20 21:03:21;;;;;;;;;;;;;;;16.43;39.23;96691.28;10520920;28;1354;-59
2024/02/20 21:08:21;;;;;;;;;;;;;;;16.42;39.25;96691.53;10517986;28;1965;-60
2024/02/20 21:13:21;;;;;;;;;;;;;;;16.41;39.13;96675.00;10521723;28;1011;-60
2024/02/20 21:18:22;;;;;;;;;;;;;;;16.42;39.31;96681.06;10519267;28;2390;-59
2024/02/20 21:23:22;;;;;;;;;;;;;;;16.41;39.19;96684.66;10512280;28;1496;-59
2024/02/20 21:28:22;;;;;;;;;;;;;;;16.42;39.11;96686.28;10506916;28;1901;-59
2024/02/20 21:33:22;;;;;;;;;;;;;;;16.41;39.09;96684.66;10522829;28;1584;-59
2024/02/20 21:38:23;;;;;;;;;;;;;;;16.40;39.11;96678.66;10516676;28;1473;-59
2024/02/20 21:43:23;;;;;;;;;;;;;;;16.40;39.07;96675.25;10523050;28;1086;-60
2024/02/20 21:48:24;;;;;;;;;;;;;;;16.40;39.07;96677.88;10521917;28;1967;-59
2024/02/20 21:53:24;;;;;;;;;;;;;;;16.39;39.05;96681.47;10517913;28;1345;-59
2024/02/20 21:58:24;;;;;;;;;;;;;;;16.39;39.17;96671.81;10524608;28;987;-59
2024/02/20 22:03:27;;;;;;;;;;;;;;;16.39;39.11;96684.09;10511493;28;2444;-60
2024/02/20 22:08:27;;;;;;;;;;;;;;;16.39;39.02;96665.78;10511585;28;1910;-59
2024/02/20 22:13:28;;;;;;;;;;;;;;;16.37;39.26;96663.41;10519355;28;1620;-59
2024/02/20 22:18:28;;;;;;;;;;;;;;;16.37;39.04;96658.16;10515848;28;1715;-59
2024/02/20 22:23:28;;;;;;;;;;;;;;;16.38;38.97;96661.59;10519104;28;1505;-60
2024/02/20 22:28:28;;;;;;;;;;;;;;;16.38;39.13;96661.59;10532138;28;1986;-60
2024/02/20 22:33:29;;;;;;;;;;;;;;;16.37;38.99;96662.59;10512340;28;1617;-60
2024/02/20 22:38:30;;;;;;;;;;;;;;;16.36;38.99;96653.97;10524386;28;1600;-59
2024/02/20 22:43:31;;;;;;;;;;;;;;;16.37;39.02;96652.13;10519171;28;1521;-59
2024/02/20 22:48:31;;;;;;;;;;;;;;;16.36;38.95;96650.56;10517640;28;2454;-59
2024/02/20 22:53:32;;;;;;;;;;;;;;;16.37;39.05;96649.50;10512380;28;1302;-58
2024/02/20 22:58:32;;;;;;;;;;;;;;;16.37;38.96;96649.50;10518672;28;1441;-58
2024/02/20 23:03:32;;;;;;;;;;;;;;;16.35;39.00;96634.03;10520707;28;1231;-58
2024/02/20 23:08:34;;;;;;;;;;;;;;;16.36;38.97;96642.69;10523590;28;1902;-58
2024/02/20 23:13:34;;;;;;;;;;;;;;;16.35;38.95;96628.81;10514168;28;1635;-60
2024/02/20 23:18:34;;;;;;;;;;;;;;;16.35;38.97;96633.25;10516720;28;1389;-58
2024/02/20 23:23:35;;;;;;;;;;;;;;;16.35;38.93;96622.78;10514866;28;1333;-58
2024/02/20 23:28:35;;;;;;;;;;;;;;;16.35;38.80;96620.16;10520364;28;2536;-58
2024/02/20 23:33:35;;;;;;;;;;;;;;;16.35;38.89;96630.63;10505110;28;1552;-58
2024/02/20 23:38:38;;;;;;;;;;;;;;;16.34;38.85;96624.63;10516488;28;1294;-60
2024/02/20 23:43:38;;;;;;;;;;;;;;;16.35;38.85;96620.16;10505947;28;1616;-59
2024/02/20 23:48:39;;;;;;;;;;;;;;;16.33;38.81;96624.81;10515328;28;1882;-59
2024/02/20 23:53:39;;;;;;;;;;;;;;;16.34;38.85;96634.28;10515371;28;1358;-58
2024/02/20 23:58:40;;;;;;;;;;;;;;;16.33;38.77;96625.63;10518139;28;1222;-58
